createdAt,value
2018-08-18T00:00:32.618Z,6.73
2018-08-18T00:03:02.316Z,8.40
2018-08-18T00:05:31.956Z,5.60
2018-08-18T00:08:01.541Z,6.47
2018-08-18T00:10:31.378Z,5.40
2018-08-18T00:13:01.006Z,5.80
2018-08-18T00:15:30.707Z,9.40
2018-08-18T00:18:00.367Z,5.13
2018-08-18T00:20:30.088Z,7.40
2018-08-18T00:22:59.750Z,7.50
2018-08-18T00:25:29.432Z,5.17
2018-08-18T00:28:24.152Z,7.10
2018-08-18T00:30:54.319Z,5.00
2018-08-18T00:33:24.335Z,6.07
2018-08-18T00:35:53.910Z,5.60
2018-08-18T00:38:24.019Z,6.80
2018-08-18T00:40:54.618Z,9.10
2018-08-18T00:43:24.271Z,6.87
2018-08-18T00:45:54.055Z,10.13
2018-08-18T00:48:23.684Z,5.33
2018-08-18T00:50:53.418Z,7.33
2018-08-18T00:53:23.066Z,6.43
2018-08-18T00:55:52.774Z,6.03
2018-08-18T00:58:27.265Z,6.27
2018-08-18T01:01:02.506Z,8.53
2018-08-18T01:03:40.374Z,7.00
2018-08-18T01:06:19.854Z,8.17
2018-08-18T01:08:53.044Z,9.00
2018-08-18T01:11:22.754Z,6.70
2018-08-18T01:13:53.069Z,6.33
2018-08-18T01:16:22.581Z,8.83
2018-08-18T01:18:54.906Z,8.53
2018-08-18T01:21:25.538Z,7.33
2018-08-18T01:23:55.252Z,9.63
2018-08-18T01:26:24.900Z,7.33
2018-08-18T01:29:05.248Z,10.00
2018-08-18T01:31:34.886Z,11.07
2018-08-18T01:34:05.034Z,9.50
2018-08-18T01:36:34.633Z,8.30
2018-08-18T01:39:05.665Z,11.47
2018-08-18T01:41:35.535Z,8.03
2018-08-18T01:44:18.737Z,9.20
2018-08-18T01:46:49.486Z,9.50
2018-08-18T01:49:28.429Z,6.20
2018-08-18T01:52:00.108Z,5.10
2018-08-18T01:54:30.006Z,7.43
2018-08-18T01:57:06.639Z,10.03
2018-08-18T01:59:36.845Z,9.90
2018-08-18T02:02:27.910Z,6.10
2018-08-18T02:05:06.592Z,10.20
2018-08-18T02:07:36.196Z,7.70
2018-08-18T02:10:07.280Z,8.07
2018-08-18T02:12:36.844Z,10.03
2018-08-18T02:15:06.482Z,6.40
2018-08-18T02:17:37.226Z,9.70
2018-08-18T02:20:10.035Z,10.80
2018-08-18T02:22:39.685Z,8.47
2018-08-18T02:25:09.368Z,11.97
2018-08-18T02:27:38.947Z,9.00
2018-08-18T02:30:24.247Z,8.33
2018-08-18T02:32:53.885Z,11.03
2018-08-18T02:35:24.638Z,11.87
2018-08-18T02:37:54.283Z,13.17
2018-08-18T02:40:23.824Z,10.27
2018-08-18T02:42:53.421Z,16.47
2018-08-18T02:45:23.095Z,13.23
2018-08-18T02:48:10.507Z,12.93
2018-08-18T02:50:44.195Z,17.77
2018-08-18T02:53:30.181Z,12.37
2018-08-18T02:55:59.779Z,15.30
2018-08-18T02:58:29.509Z,15.13
2018-08-18T03:00:59.044Z,14.30
2018-08-18T03:03:28.623Z,18.60
2018-08-18T03:06:10.015Z,15.00
2018-08-18T03:08:39.602Z,15.43
2018-08-18T03:11:09.297Z,17.47
2018-08-18T03:13:38.847Z,18.07
2018-08-18T03:16:10.840Z,19.40
2018-08-18T03:18:47.682Z,16.87
2018-08-18T03:21:17.839Z,17.67
2018-08-18T03:24:04.369Z,18.27
2018-08-18T03:26:39.395Z,17.43
2018-08-18T03:29:09.324Z,20.67
2018-08-18T03:31:39.728Z,19.77
2018-08-18T03:34:09.792Z,20.50
2018-08-18T03:36:41.412Z,20.43
2018-08-18T03:39:22.617Z,20.00
2018-08-18T03:41:55.196Z,21.33
2018-08-18T03:44:24.864Z,21.77
2018-08-18T03:46:54.518Z,23.27
2018-08-18T03:49:24.179Z,27.33
2018-08-18T03:51:55.342Z,25.40
2018-08-18T03:54:24.931Z,24.80
2018-08-18T03:56:54.765Z,25.90
2018-08-18T03:59:24.828Z,23.43
2018-08-18T04:01:55.883Z,25.17
2018-08-18T04:04:27.094Z,20.40
2018-08-18T04:06:57.860Z,25.83
2018-08-18T04:09:30.730Z,21.67
2018-08-18T04:12:02.984Z,20.50
2018-08-18T04:14:37.658Z,25.23
2018-08-18T04:17:39.776Z,24.13
2018-08-18T04:20:09.468Z,23.17
2018-08-18T04:22:39.006Z,22.30
2018-08-18T04:25:08.758Z,19.67
2018-08-18T04:27:41.715Z,20.70
2018-08-18T04:30:14.337Z,19.57
2018-08-18T04:32:53.137Z,20.57
2018-08-18T04:35:27.197Z,20.70
2018-08-18T04:37:57.548Z,20.03
2018-08-18T04:40:27.437Z,19.30
2018-08-18T04:42:59.706Z,18.90
2018-08-18T04:45:29.330Z,19.83
2018-08-18T04:47:58.882Z,18.53
2018-08-18T04:50:28.560Z,18.70
2018-08-18T04:52:58.046Z,18.93
2018-08-18T04:55:27.559Z,18.70
2018-08-18T04:57:57.113Z,16.60
2018-08-18T05:00:28.843Z,20.07
2018-08-18T05:02:59.375Z,17.27
2018-08-18T05:05:30.319Z,17.07
2018-08-18T05:08:01.231Z,19.80
2018-08-18T05:10:30.991Z,15.47
2018-08-18T05:13:00.741Z,13.70
2018-08-18T05:15:30.404Z,13.23
2018-08-18T05:18:00.035Z,15.03
2018-08-18T05:20:31.001Z,10.67
2018-08-18T05:23:19.095Z,11.10
2018-08-18T05:25:50.591Z,12.03
2018-08-18T05:28:20.540Z,14.07
2018-08-18T05:30:53.163Z,14.67
2018-08-18T05:33:22.894Z,12.90
2018-08-18T05:35:52.519Z,11.40
2018-08-18T05:38:22.247Z,14.80
2018-08-18T05:40:51.822Z,11.77
2018-08-18T05:43:21.348Z,11.33
2018-08-18T05:45:50.959Z,12.57
2018-08-18T05:48:20.512Z,15.63
2018-08-18T05:50:50.076Z,11.27
2018-08-18T05:53:21.449Z,10.53
2018-08-18T05:55:51.233Z,11.60
2018-08-18T05:58:20.956Z,11.30
2018-08-18T06:00:55.504Z,14.77
2018-08-18T06:03:25.108Z,10.43
2018-08-18T06:05:54.793Z,14.40
2018-08-18T06:08:24.412Z,11.50
2018-08-18T06:10:54.169Z,11.37
2018-08-18T06:13:24.049Z,11.40
2018-08-18T06:16:09.496Z,11.00
2018-08-18T06:18:40.129Z,11.73
2018-08-18T06:21:09.826Z,8.97
2018-08-18T06:23:39.884Z,8.73
2018-08-18T06:26:09.829Z,8.30
2018-08-18T06:28:39.436Z,9.98
2018-08-18T06:31:09.145Z,10.60
2018-08-18T06:33:38.719Z,8.75
2018-08-18T06:36:08.311Z,8.88
2018-08-18T06:38:37.889Z,13.53
2018-08-18T06:41:07.945Z,9.43
2018-08-18T06:43:37.417Z,9.03
2018-08-18T06:46:07.018Z,8.85
2018-08-18T06:48:37.558Z,9.05
2018-08-18T06:51:07.922Z,9.45
2018-08-18T06:53:45.556Z,11.85
2018-08-18T06:56:15.349Z,13.00
2018-08-18T06:58:45.001Z,10.23
2018-08-18T07:01:14.719Z,10.68
2018-08-18T07:03:45.881Z,9.35
2018-08-18T07:06:16.891Z,10.55
2018-08-18T07:08:53.943Z,8.88
2018-08-18T07:11:23.552Z,13.05
2018-08-18T07:13:53.191Z,12.30
2018-08-18T07:16:22.812Z,12.28
2018-08-18T07:18:52.337Z,10.30
2018-08-18T07:21:22.092Z,10.38
2018-08-18T07:23:51.675Z,11.12
2018-08-18T07:26:21.288Z,9.65
2018-08-18T07:28:51.026Z,11.28
2018-08-18T07:31:20.532Z,8.75
2018-08-18T07:33:50.275Z,9.10
2018-08-18T07:36:20.053Z,9.58
2018-08-18T07:38:49.662Z,8.03
2018-08-18T07:41:20.211Z,8.05
2018-08-18T07:43:49.780Z,11.80
2018-08-18T07:46:19.600Z,10.13
2018-08-18T07:48:49.134Z,11.43
2018-08-18T07:51:18.848Z,9.40
2018-08-18T07:53:48.474Z,10.53
2018-08-18T07:56:18.177Z,8.63
2018-08-18T07:58:47.792Z,9.43
2018-08-18T08:01:17.392Z,7.53
2018-08-18T08:03:46.995Z,9.63
2018-08-18T08:06:16.671Z,11.20
2018-08-18T08:08:48.482Z,19.13
2018-08-18T08:11:18.193Z,9.33
2018-08-18T08:13:47.946Z,7.60
2018-08-18T08:16:17.703Z,10.80
2018-08-18T08:18:47.356Z,8.73
2018-08-18T08:21:17.148Z,11.73
2018-08-18T08:23:46.835Z,8.97
2018-08-18T08:26:16.392Z,9.47
2018-08-18T08:28:46.143Z,7.33
2018-08-18T08:31:15.780Z,11.40
2018-08-18T08:33:45.518Z,8.40
2018-08-18T08:36:16.943Z,11.80
2018-08-18T08:38:57.654Z,8.73
2018-08-18T08:41:29.699Z,9.00
2018-08-18T08:43:59.718Z,8.67
2018-08-18T08:46:29.749Z,11.10
2018-08-18T08:49:01.480Z,11.57
2018-08-18T08:51:34.253Z,9.57
2018-08-18T08:54:04.323Z,12.60
2018-08-18T08:56:38.916Z,7.80
2018-08-18T08:59:08.930Z,9.47
2018-08-18T09:01:38.728Z,9.40
2018-08-18T09:04:08.585Z,9.80
2018-08-18T09:06:42.433Z,7.57
2018-08-18T09:09:12.230Z,9.83
2018-08-18T09:11:41.933Z,7.33
2018-08-18T09:14:11.738Z,8.83
2018-08-18T09:16:41.720Z,8.50
2018-08-18T09:19:11.329Z,8.07
2018-08-18T09:21:46.358Z,8.60
2018-08-18T09:24:15.945Z,8.87
2018-08-18T09:26:50.749Z,10.17
2018-08-18T09:29:20.715Z,7.80
2018-08-18T09:31:50.476Z,6.27
2018-08-18T09:34:20.637Z,11.97
2018-08-18T09:36:50.390Z,10.50
2018-08-18T09:39:36.438Z,8.73
2018-08-18T09:42:10.460Z,7.07
2018-08-18T09:44:49.107Z,10.90
2018-08-18T09:47:18.908Z,10.20
2018-08-18T09:49:48.509Z,8.63
2018-08-18T09:52:20.148Z,22.67
2018-08-18T09:54:49.778Z,9.23
2018-08-18T09:57:19.633Z,9.93
2018-08-18T09:59:49.297Z,11.63
2018-08-18T10:02:19.076Z,11.57
2018-08-18T10:04:48.832Z,6.73
2018-08-18T10:07:19.238Z,7.53
2018-08-18T10:09:48.879Z,14.37
2018-08-18T10:12:18.543Z,10.43
2018-08-18T10:14:48.260Z,7.50
2018-08-18T10:17:17.900Z,7.90
2018-08-18T10:19:47.529Z,9.00
2018-08-18T10:22:17.176Z,6.57
2018-08-18T10:24:46.760Z,10.67
2018-08-18T10:27:18.142Z,6.70
2018-08-18T10:29:47.825Z,14.43
2018-08-18T10:32:17.466Z,7.93
2018-08-18T10:34:47.115Z,10.80
2018-08-18T10:37:16.681Z,10.00
2018-08-18T10:39:46.377Z,5.93
2018-08-18T10:42:20.797Z,6.40
2018-08-18T10:44:55.590Z,7.60
2018-08-18T10:47:25.476Z,8.73
2018-08-18T10:50:11.950Z,6.37
2018-08-18T10:52:56.240Z,10.50
2018-08-18T10:55:25.913Z,4.42
2018-08-18T10:58:02.820Z,5.47
2018-08-18T11:00:33.630Z,5.12
2018-08-18T11:03:04.662Z,4.80
2018-08-18T11:05:34.491Z,8.63
2018-08-18T11:08:10.028Z,4.50
2018-08-18T11:10:41.839Z,4.25
2018-08-18T11:13:11.512Z,6.22
2018-08-18T11:15:41.155Z,6.97
2018-08-18T11:18:10.810Z,7.47
2018-08-18T11:20:40.414Z,5.83
2018-08-18T11:23:12.996Z,5.87
2018-08-18T11:25:53.067Z,4.70
2018-08-18T11:28:23.609Z,6.67
2018-08-18T11:30:54.722Z,5.83
2018-08-18T11:33:39.078Z,4.67
2018-08-18T11:36:09.817Z,6.87
2018-08-18T11:38:39.831Z,4.00
2018-08-18T11:41:09.514Z,8.70
2018-08-18T11:43:50.037Z,8.07
2018-08-18T11:46:19.888Z,6.83
2018-08-18T11:48:49.619Z,4.00
2018-08-18T11:51:19.505Z,8.70
2018-08-18T11:54:00.501Z,7.57
2018-08-18T11:56:30.300Z,11.00
2018-08-18T11:59:13.135Z,8.63
2018-08-18T12:01:47.813Z,9.43
2018-08-18T12:04:18.337Z,8.57
2018-08-18T12:06:53.162Z,6.57
2018-08-18T12:09:23.026Z,5.30
2018-08-18T12:11:52.832Z,6.87
2018-08-18T12:14:22.499Z,5.97
2018-08-18T12:16:52.509Z,5.90
2018-08-18T12:19:22.265Z,9.20
2018-08-18T12:21:52.004Z,8.53
2018-08-18T12:24:22.352Z,5.97
2018-08-18T12:27:07.466Z,7.50
2018-08-18T12:29:37.371Z,9.90
2018-08-18T12:32:39.931Z,8.33
2018-08-18T12:35:09.602Z,4.93
2018-08-18T12:37:39.235Z,7.13
2018-08-18T12:40:08.961Z,7.57
2018-08-18T12:42:38.842Z,6.93
2018-08-18T12:45:08.522Z,6.27
2018-08-18T12:47:42.633Z,5.57
2018-08-18T12:50:13.874Z,6.27
2018-08-18T12:52:48.978Z,6.50
2018-08-18T12:55:20.380Z,6.33
2018-08-18T12:57:51.161Z,7.27
2018-08-18T13:00:20.794Z,7.53
2018-08-18T13:02:54.753Z,6.47
2018-08-18T13:05:26.326Z,4.93
2018-08-18T13:08:02.968Z,6.67
2018-08-18T13:10:32.598Z,7.83
2018-08-18T13:13:02.228Z,7.27
2018-08-18T13:15:31.827Z,6.30
2018-08-18T13:18:01.418Z,5.90
2018-08-18T13:20:31.316Z,7.40
2018-08-18T13:23:00.971Z,10.03
2018-08-18T13:25:31.340Z,8.77
2018-08-18T13:28:00.993Z,6.23
2018-08-18T13:30:30.634Z,6.17
2018-08-18T13:33:00.469Z,7.10
2018-08-18T13:35:30.114Z,5.37
2018-08-18T13:37:59.789Z,5.83
2018-08-18T13:40:29.676Z,4.23
2018-08-18T13:42:59.318Z,9.93
2018-08-18T13:45:42.410Z,6.63
2018-08-18T13:48:12.983Z,4.17
2018-08-18T13:50:42.733Z,6.20
2018-08-18T13:53:12.320Z,7.63
2018-08-18T13:55:42.591Z,3.67
2018-08-18T13:58:13.142Z,4.37
2018-08-18T14:00:42.703Z,4.17
2018-08-18T14:03:29.092Z,4.87
2018-08-18T14:05:58.727Z,4.60
2018-08-18T14:08:28.356Z,6.90
2018-08-18T14:10:58.076Z,3.53
2018-08-18T14:13:29.126Z,4.50
2018-08-18T14:15:59.005Z,4.90
2018-08-18T14:18:28.689Z,4.20
2018-08-18T14:21:06.722Z,4.30
2018-08-18T14:23:36.429Z,3.60
2018-08-18T14:26:06.227Z,4.90
2018-08-18T14:28:35.941Z,2.67
2018-08-18T14:31:05.654Z,4.63
2018-08-18T14:33:35.404Z,5.60
2018-08-18T14:36:10.993Z,3.93
2018-08-18T14:38:42.053Z,4.53
2018-08-18T14:41:12.273Z,4.50
2018-08-18T14:43:42.744Z,4.60
2018-08-18T14:46:15.353Z,5.67
2018-08-18T14:48:44.882Z,5.90
2018-08-18T14:51:14.488Z,5.53
2018-08-18T14:53:44.074Z,7.63
2018-08-18T14:56:13.689Z,5.20
2018-08-18T14:58:45.410Z,5.30
2018-08-18T15:01:15.757Z,4.63
2018-08-18T15:03:45.443Z,6.03
2018-08-18T15:06:15.064Z,3.13
2018-08-18T15:08:44.827Z,5.17
2018-08-18T15:11:14.399Z,5.03
2018-08-18T15:13:43.991Z,5.40
2018-08-18T15:16:14.453Z,6.00
2018-08-18T15:18:44.056Z,5.07
2018-08-18T15:21:13.762Z,5.70
2018-08-18T15:23:43.451Z,6.37
2018-08-18T15:26:13.110Z,7.00
2018-08-18T15:28:42.793Z,6.33
2018-08-18T15:31:12.412Z,6.97
2018-08-18T15:33:42.044Z,8.47
2018-08-18T15:36:28.497Z,5.30
2018-08-18T15:38:58.192Z,6.13
2018-08-18T15:41:27.826Z,8.90
2018-08-18T15:43:57.468Z,4.27
2018-08-18T15:46:27.177Z,4.53
2018-08-18T15:48:57.077Z,5.30
2018-08-18T15:51:27.322Z,8.97
2018-08-18T15:53:59.046Z,5.60
2018-08-18T15:56:29.811Z,6.13
2018-08-18T15:59:00.276Z,9.07
2018-08-18T16:01:32.120Z,7.17
2018-08-18T16:04:03.170Z,11.07
2018-08-18T16:06:32.815Z,10.53
2018-08-18T16:09:02.558Z,6.07
2018-08-18T16:11:32.217Z,6.63
2018-08-18T16:14:01.933Z,9.70
2018-08-18T16:16:31.636Z,5.13
2018-08-18T16:19:06.415Z,11.97
2018-08-18T16:21:36.088Z,7.17
2018-08-18T16:24:05.895Z,6.60
2018-08-18T16:26:35.578Z,6.47
2018-08-18T16:29:05.156Z,3.70
2018-08-18T16:31:34.777Z,5.93
2018-08-18T16:34:04.452Z,8.40
2018-08-18T16:36:39.465Z,5.40
2018-08-18T16:39:09.776Z,4.63
2018-08-18T16:41:39.334Z,5.27
2018-08-18T16:44:09.096Z,10.27
2018-08-18T16:46:38.684Z,6.97
2018-08-18T16:49:08.390Z,5.80
2018-08-18T16:51:38.463Z,12.03
2018-08-18T16:54:20.951Z,9.77
2018-08-18T16:56:50.615Z,4.50
2018-08-18T16:59:20.357Z,5.70
2018-08-18T17:01:50.109Z,5.27
2018-08-18T17:04:28.907Z,5.63
2018-08-18T17:06:58.661Z,6.80
2018-08-18T17:09:46.641Z,6.50
2018-08-18T17:12:23.842Z,6.03
2018-08-18T17:14:54.108Z,9.10
2018-08-18T17:17:25.729Z,5.57
2018-08-18T17:19:55.397Z,8.40
2018-08-18T17:22:25.089Z,4.13
2018-08-18T17:24:54.896Z,7.90
2018-08-18T17:27:25.097Z,7.07
2018-08-18T17:29:54.732Z,4.23
2018-08-18T17:32:26.983Z,4.17
2018-08-18T17:34:56.677Z,8.83
2018-08-18T17:37:26.470Z,7.47
2018-08-18T17:39:56.199Z,3.23
2018-08-18T17:42:25.884Z,3.60
2018-08-18T17:44:55.618Z,5.27
2018-08-18T17:47:25.419Z,4.90
2018-08-18T17:49:56.063Z,6.07
2018-08-18T17:52:26.536Z,5.40
2018-08-18T17:55:10.425Z,5.80
2018-08-18T17:57:40.319Z,6.60
2018-08-18T18:00:17.296Z,3.50
2018-08-18T18:02:53.506Z,4.07
2018-08-18T18:05:30.445Z,5.43
2018-08-18T18:08:05.316Z,5.40
2018-08-18T18:10:37.821Z,5.17
2018-08-18T18:13:17.248Z,3.60
2018-08-18T18:15:48.386Z,4.57
2018-08-18T18:18:20.058Z,5.87
2018-08-18T18:20:51.218Z,4.57
2018-08-18T18:23:21.390Z,5.27
2018-08-18T18:25:51.161Z,3.80
2018-08-18T18:28:20.970Z,5.97
2018-08-18T18:30:53.844Z,6.27
2018-08-18T18:33:23.726Z,5.30
2018-08-18T18:35:53.431Z,5.90
2018-08-18T18:38:23.223Z,9.50
2018-08-18T18:40:52.963Z,4.60
2018-08-18T18:43:22.820Z,5.33
2018-08-18T18:45:53.655Z,5.03
2018-08-18T18:48:23.354Z,5.57
2018-08-18T18:50:53.022Z,4.30
2018-08-18T18:53:22.813Z,6.37
2018-08-18T18:55:54.361Z,5.00
2018-08-18T18:58:24.295Z,3.60
2018-08-18T19:00:57.228Z,7.70
2018-08-18T19:03:26.895Z,5.50
2018-08-18T19:05:56.656Z,5.27
2018-08-18T19:08:26.412Z,7.20
2018-08-18T19:10:56.243Z,5.17
2018-08-18T19:13:28.074Z,7.33
2018-08-18T19:15:58.161Z,6.60
2018-08-18T19:18:27.804Z,6.60
2018-08-18T19:20:57.643Z,5.37
2018-08-18T19:23:27.418Z,7.80
2018-08-18T19:25:57.314Z,4.63
2018-08-18T19:28:27.017Z,5.70
2018-08-18T19:30:56.583Z,8.03
2018-08-18T19:33:26.578Z,6.03
2018-08-18T19:35:56.372Z,6.97
2018-08-18T19:38:26.124Z,8.20
2018-08-18T19:40:56.582Z,5.20
2018-08-18T19:43:27.568Z,9.43
2018-08-18T19:45:57.646Z,7.77
2018-08-18T19:48:28.426Z,8.33
2018-08-18T19:51:03.025Z,10.67
2018-08-18T19:53:34.044Z,7.90
2018-08-18T19:56:04.333Z,8.40
2018-08-18T19:58:34.154Z,11.77
2018-08-18T20:01:03.958Z,11.70
2018-08-18T20:03:34.644Z,4.40
2018-08-18T20:06:08.542Z,6.63
2018-08-18T20:08:38.298Z,10.40
2018-08-18T20:11:08.139Z,11.80
2018-08-18T20:13:38.068Z,8.80
2018-08-18T20:16:07.998Z,7.03
2018-08-18T20:18:37.793Z,8.33
2018-08-18T20:21:07.464Z,8.20
2018-08-18T20:23:37.234Z,13.77
2018-08-18T20:26:06.936Z,10.50
2018-08-18T20:28:36.667Z,9.27
2018-08-18T20:31:06.380Z,8.03
2018-08-18T20:33:36.124Z,11.03
2018-08-18T20:36:05.894Z,9.77
2018-08-18T20:38:46.308Z,11.90
2018-08-18T20:41:16.168Z,9.97
2018-08-18T20:43:48.679Z,12.00
2018-08-18T20:46:18.536Z,8.07
2018-08-18T20:48:48.215Z,9.63
2018-08-18T20:51:22.064Z,8.37
2018-08-18T20:53:51.793Z,9.13
2018-08-18T20:56:21.994Z,9.43
2018-08-18T20:58:51.727Z,10.60
2018-08-18T21:01:21.729Z,11.07
2018-08-18T21:03:52.397Z,10.43
2018-08-18T21:06:22.054Z,13.73
2018-08-18T21:08:51.867Z,10.23
2018-08-18T21:11:21.603Z,7.40
2018-08-18T21:13:52.231Z,11.10
2018-08-18T21:16:23.548Z,13.63
2018-08-18T21:18:53.142Z,10.90
2018-08-18T21:21:29.348Z,10.57
2018-08-18T21:23:59.775Z,12.90
2018-08-18T21:26:30.252Z,9.23
2018-08-18T21:29:00.091Z,10.03
2018-08-18T21:31:36.215Z,10.43
2018-08-18T21:34:07.102Z,6.77
2018-08-18T21:36:37.389Z,13.43
2018-08-18T21:39:09.668Z,12.60
2018-08-18T21:41:41.451Z,8.37
2018-08-18T21:44:13.505Z,10.47
2018-08-18T21:46:43.749Z,9.13
2018-08-18T21:49:14.356Z,8.20
2018-08-18T21:51:44.452Z,11.23
2018-08-18T21:54:14.221Z,17.93
2018-08-18T21:56:44.188Z,9.40
2018-08-18T21:59:14.649Z,9.57
2018-08-18T22:01:44.318Z,11.67
2018-08-18T22:04:20.874Z,15.03
2018-08-18T22:06:50.846Z,13.37
2018-08-18T22:09:28.434Z,9.87
2018-08-18T22:11:58.103Z,11.13
2018-08-18T22:14:27.925Z,9.53
2018-08-18T22:16:58.544Z,8.57
2018-08-18T22:19:29.863Z,14.23
2018-08-18T22:22:05.786Z,14.10
2018-08-18T22:24:35.756Z,9.37
2018-08-18T22:27:05.651Z,11.43
2018-08-18T22:29:35.462Z,11.23
2018-08-18T22:32:09.344Z,11.87
2018-08-18T22:34:38.969Z,13.50
2018-08-18T22:37:15.017Z,11.77
2018-08-18T22:39:44.682Z,12.77
2018-08-18T22:42:14.356Z,13.00
2018-08-18T22:44:50.694Z,21.37
2018-08-18T22:47:20.411Z,13.43
2018-08-18T22:49:52.033Z,15.40
2018-08-18T22:52:21.972Z,11.83
2018-08-18T22:54:51.908Z,11.70
2018-08-18T22:57:22.006Z,14.27
2018-08-18T22:59:52.908Z,12.40
2018-08-18T23:02:22.663Z,14.27
2018-08-18T23:04:52.448Z,10.20
2018-08-18T23:07:22.173Z,10.63
2018-08-18T23:09:51.966Z,13.03
2018-08-18T23:12:21.934Z,11.53
2018-08-18T23:14:51.535Z,11.30
2018-08-18T23:17:21.279Z,13.30
2018-08-18T23:19:51.016Z,12.13
2018-08-18T23:22:41.526Z,11.93
2018-08-18T23:25:11.159Z,13.73
2018-08-18T23:27:40.824Z,11.87
2018-08-18T23:30:10.872Z,11.97
2018-08-18T23:32:40.911Z,11.67
2018-08-18T23:35:10.769Z,14.37
2018-08-18T23:37:40.480Z,12.60
2018-08-18T23:40:10.310Z,11.33
2018-08-18T23:42:40.214Z,10.13
2018-08-18T23:45:09.975Z,9.30
2018-08-18T23:47:40.004Z,8.40
2018-08-18T23:50:09.985Z,11.43
2018-08-18T23:52:55.419Z,13.27
2018-08-18T23:55:25.295Z,13.60
2018-08-18T23:57:55.262Z,11.63
